Latest Weather Observations for Albury

IDV60801

Issued at 3:02 pm EST Friday 6 May 2016 (issued every 30 minutes, with the page automatically refreshed every 10 minutes)

About weather observations | Map of weather stations | Latest weather observations for VIC | Other Formats
Station Details ID: 072160 Name: ALBURY AIRPORT AWS Lat: -36.07 Lon: 146.95 Height: 163.5 m
Data from the previous 72 hours. | See also: Recent months at Albury
Date/Time
EST
Temp
°C
App
Temp
°C
Dew
Point
Rel
Hum
%
Delta-T
°C
Wind Press
QNH
hPa
Press
MSL
hPa
Rain
since 9 am
mm
Dir
 
Spd
km/h
Gust
km/h
Spd
kts
Gust
kts
06/03:00pm 24.7 22.9 9.4 38 8.4 NW 9 19 5 10 1016.7 1016.7 0.0
06/02:30pm 24.9 23.2 10.0 39 8.3 N 9 17 5 9 1016.8 1016.8 0.0
06/02:00pm 24.0 21.0 9.2 39 8.1 N 15 20 8 11 1017.1 1017.2 0.0
06/01:30pm 23.0 21.5 10.4 45 7.0 E 9 13 5 7 1017.4 1017.5 0.0
06/01:00pm 21.5 20.3 10.3 49 6.1 SSE 7 11 4 6 1017.7 1017.8 0.0
06/12:30pm 21.0 19.9 10.5 51 5.8 S 7 11 4 6 1018.2 1018.3 0.0
06/12:00pm 20.4 19.2 10.2 52 5.5 SE 7 13 4 7 1018.7 1018.8 0.0
06/11:30am 18.7 17.0 9.8 56 4.8 SSW 9 11 5 6 1019.3 1019.4 0.0
06/11:00am 17.8 16.5 9.9 60 4.2 SE 7 13 4 7 1019.6 1019.7 0.0
06/10:30am 16.6 15.3 10.0 65 3.5 ESE 7 11 4 6 1019.8 1019.9 0.0
06/10:00am 15.4 13.9 9.1 66 3.2 ESE 7 11 4 6 1020.0 1020.1 0.0
06/09:30am 14.5 12.7 9.3 71 2.7 ENE 9 13 5 7 1020.3 1020.4 0.0
06/09:00am 13.5 13.2 8.8 73 2.4 CALM 0 0 0 0 1020.5 1020.6 0.0
06/08:30am 12.1 11.8 8.8 80 1.7 CALM 0 0 0 0 1020.5 1020.6 0.0
06/08:00am 9.6 9.3 8.7 94 0.4 CALM 0 6 0 3 1020.4 1020.5 0.0
06/07:30am 7.5 6.9 7.2 98 0.1 CALM 0 0 0 0 1020.0 1020.1 0.0
06/07:00am 7.1 6.4 6.8 98 0.1 CALM 0 4 0 2 1019.8 1019.9 0.0
06/06:30am 6.8 6.0 6.5 98 0.1 CALM 0 0 0 0 1019.5 1019.6 0.0
06/06:00am 7.4 6.8 7.3 99 0.0 CALM 0 0 0 0 1019.3 1019.4 0.0
06/05:30am 7.3 6.6 7.0 98 0.1 CALM 0 0 0 0 1019.1 1019.2 0.0
06/05:00am 7.3 6.5 6.6 95 0.3 CALM 0 0 0 0 1018.8 1018.9 0.0
06/04:30am 7.7 5.9 7.0 95 0.3 N 6 7 3 4 1018.8 1018.9 0.0
06/04:00am 8.0 7.0 7.4 96 0.3 N 2 6 1 3 1018.9 1019.0 0.0
06/03:30am 8.2 7.2 7.3 94 0.4 N 2 6 1 3 1018.8 1018.9 0.0
06/03:00am 8.7 8.1 7.6 93 0.5 CALM 0 0 0 0 1019.0 1019.1 0.0
06/02:30am 8.3 6.4 6.9 91 0.7 N 6 7 3 4 1019.1 1019.2 0.0
06/02:00am 8.8 7.1 7.6 92 0.6 NNW 6 7 3 4 1019.1 1019.2 0.0
06/01:30am 8.4 7.3 7.0 91 0.7 N 2 6 1 3 1019.0 1019.1 0.0
06/01:00am 8.3 7.6 7.1 92 0.6 CALM 0 0 0 0 1019.1 1019.2 0.0
06/12:30am 8.8 8.2 7.3 90 0.7 CALM 0 0 0 0 1019.0 1019.1 0.0
06/12:00am 9.4 8.8 7.3 87 1.0 CALM 0 0 0 0 1019.1 1019.2 0.0
 
Date/Time
EST
Temp
°C
App
Temp
°C
Dew
Point
Rel
Hum
%
Delta-T
°C
Wind Press
QNH
hPa
Press
MSL
hPa
Rain
since 9 am
mm
Dir
 
Spd
km/h
Gust
km/h
Spd
kts
Gust
kts
05/11:30pm 9.8 9.2 7.6 86 1.1 CALM 0 0 0 0 1019.2 1019.3 0.0
05/11:00pm 10.6 9.0 8.2 85 1.2 ENE 6 7 3 4 1019.2 1019.3 0.0
05/10:30pm 10.8 10.3 8.0 83 1.4 CALM 0 0 0 0 1019.3 1019.4 0.0
05/10:00pm 11.0 10.6 8.1 82 1.4 CALM 0 0 0 0 1019.2 1019.3 0.0
05/09:30pm 10.8 9.5 7.7 81 1.5 ESE 4 6 2 3 1019.3 1019.4 0.0
05/09:00pm 11.3 9.2 8.3 82 1.5 SE 9 9 5 5 1019.2 1019.3 0.0
05/08:30pm 10.6 10.3 8.5 87 1.0 CALM 0 0 0 0 1019.0 1019.1 0.0
05/08:00pm 12.0 11.9 9.4 84 1.3 CALM 0 0 0 0 1018.8 1018.9 0.0
05/07:30pm 12.7 12.4 8.8 77 2.0 CALM 0 0 0 0 1018.6 1018.7 0.0
05/07:00pm 13.4 12.8 7.6 68 2.9 CALM 0 0 0 0 1018.3 1018.4 0.0
05/06:30pm 14.9 13.3 8.2 64 3.4 NNE 6 7 3 4 1018.1 1018.2 0.0
05/06:00pm 15.7 13.7 7.2 57 4.2 NNE 7 9 4 5 1017.7 1017.8 0.0
05/05:30pm 16.8 14.4 7.2 53 4.8 NNE 9 9 5 5 1017.4 1017.5 0.0
05/05:00pm 18.6 16.6 7.1 47 5.8 ENE 7 11 4 6 1017.3 1017.4 0.0
05/04:30pm 18.8 16.1 7.3 47 5.9 SE 11 15 6 8 1017.3 1017.4 0.0
05/04:00pm 19.2 16.8 7.0 45 6.2 SE 9 15 5 8 1017.5 1017.6 0.0
05/03:30pm 19.6 16.8 7.0 44 6.4 S 11 15 6 8 1017.6 1017.7 0.0
05/03:00pm 19.6 17.3 7.4 45 6.3 SE 9 13 5 7 1017.5 1017.6 0.0
05/02:30pm 19.5 16.7 6.9 44 6.4 ESE 11 19 6 10 1017.7 1017.8 0.0
05/02:00pm 19.0 16.6 7.1 46 6.0 SSE 9 13 5 7 1018.1 1018.2 0.0
05/01:30pm 19.6 17.3 7.4 45 6.3 SSE 9 15 5 8 1018.3 1018.4 0.0
05/01:00pm 19.6 17.4 7.7 46 6.1 SSE 9 19 5 10 1018.6 1018.7 0.0
05/12:30pm 19.0 17.9 6.8 45 6.2 ENE 2 7 1 4 1019.0 1019.1 0.0
05/12:00pm 18.4 17.1 7.5 49 5.6 E 4 9 2 5 1019.5 1019.6 0.0
05/11:30am 17.6 15.5 8.2 54 4.8 ESE 9 13 5 7 1020.2 1020.3 0.0
05/11:00am 16.5 14.4 8.2 58 4.2 ENE 9 13 5 7 1020.8 1020.9 0.0
05/10:30am 15.5 13.7 8.0 61 3.8 ENE 7 15 4 8 1021.2 1021.3 0.0
05/10:00am 14.7 13.1 8.2 65 3.3 E 6 9 3 5 1021.2 1021.3 0.0
05/09:30am 13.6 11.8 8.0 69 2.8 E 7 11 4 6 1021.3 1021.4 0.0
05/09:00am 12.7 10.9 8.0 73 2.3 SE 7 9 4 5 1021.4 1021.5 0.0
05/08:30am 12.2 11.8 8.3 77 1.9 CALM 0 0 0 0 1021.3 1021.4 0.0
05/08:00am 11.7 10.9 8.0 78 1.8 SE 2 6 1 3 1021.0 1021.1 0.0
05/07:30am 11.0 10.5 7.7 80 1.6 CALM 0 0 0 0 1020.8 1020.9 0.0
05/07:00am 11.0 9.7 7.5 79 1.7 ESE 4 6 2 3 1020.8 1020.9 0.0
05/06:30am 11.0 10.1 7.7 80 1.6 ENE 2 6 1 3 1020.6 1020.7 0.0
05/06:00am 10.7 9.0 7.6 81 1.5 SE 6 7 3 4 1020.4 1020.5 0.0
05/05:30am 11.0 9.6 7.1 77 1.9 SE 4 7 2 4 1020.4 1020.5 0.0
05/05:00am 10.7 10.1 7.6 81 1.5 CALM 0 0 0 0 1020.3 1020.4 0.0
05/04:30am 10.8 9.8 7.5 80 1.6 SSE 2 6 1 3 1020.0 1020.1 0.0
05/04:00am 10.7 10.1 7.4 80 1.6 CALM 0 0 0 0 1019.9 1020.0 0.0
05/03:30am 10.8 10.2 7.5 80 1.6 CALM 0 0 0 0 1019.9 1020.0 0.0
05/03:00am 11.1 9.7 7.2 77 1.9 SSE 4 7 2 4 1020.0 1020.1 0.0
05/02:30am 11.1 9.4 7.4 78 1.8 SE 6 7 3 4 1020.2 1020.3 0.0
05/02:00am 11.0 10.5 7.7 80 1.6 CALM 0 0 0 0 1020.3 1020.4 0.0
05/01:30am 11.2 10.6 7.3 77 1.9 CALM 0 0 0 0 1020.4 1020.5 0.0
05/01:00am 11.2 10.5 7.1 76 2.0 CALM 0 0 0 0 1020.4 1020.5 0.0
05/12:30am 11.2 9.8 7.1 76 2.0 ESE 4 7 2 4 1020.5 1020.6 0.0
05/12:00am 11.5 9.1 7.2 75 2.1 ENE 9 11 5 6 1020.5 1020.6 0.0
 
Date/Time
EST
Temp
°C
App
Temp
°C
Dew
Point
Rel
Hum
%
Delta-T
°C
Wind Press
QNH
hPa
Press
MSL
hPa
Rain
since 9 am
mm
Dir
 
Spd
km/h
Gust
km/h
Spd
kts
Gust
kts
04/11:30pm 11.4 9.9 6.9 74 2.2 NE 4 7 2 4 1020.5 1020.6 0.0
04/11:00pm 11.3 9.2 6.8 74 2.1 E 7 9 4 5 1020.3 1020.4 0.0
04/10:30pm 11.5 10.2 6.2 70 2.5 ENE 2 7 1 4 1020.4 1020.5 0.0
04/10:00pm 11.1 10.3 6.3 72 2.3 CALM 0 0 0 0 1020.4 1020.5 0.0
04/09:30pm 11.0 10.2 6.4 73 2.2 CALM 0 0 0 0 1020.3 1020.4 0.0
04/09:00pm 10.7 9.9 6.3 74 2.1 CALM 0 4 0 2 1020.3 1020.4 0.0
04/08:30pm 10.7 8.6 6.5 75 2.0 E 7 9 4 5 1020.0 1020.1 0.0
04/08:00pm 11.1 10.3 6.5 73 2.2 CALM 0 0 0 0 1019.8 1019.9 0.0
04/07:30pm 11.4 9.3 5.9 69 2.6 NNW 6 7 3 4 1019.6 1019.7 0.0
04/07:00pm 11.3 10.2 5.2 66 2.8 CALM 0 0 0 0 1019.4 1019.5 0.0
04/06:30pm 12.1 9.7 5.3 63 3.2 NNW 7 9 4 5 1019.1 1019.2 0.0
04/06:00pm 12.9 10.1 5.1 59 3.6 W 9 9 5 5 1018.6 1018.7 0.0
04/05:30pm 12.8 9.5 4.8 58 3.7 W 11 13 6 7 1018.1 1018.2 0.0
04/05:00pm 14.8 11.6 5.3 53 4.5 W 11 15 6 8 1017.9 1018.0 0.0
04/04:30pm 16.0 12.0 4.7 47 5.4 W 15 19 8 10 1017.6 1017.7 0.0
04/04:00pm 16.5 12.9 5.2 47 5.4 WSW 13 20 7 11 1017.3 1017.4 0.0
04/03:30pm 16.9 13.5 3.9 42 6.1 NNW 11 15 6 8 1017.1 1017.2 0.0
04/03:00pm 17.0 13.8 3.0 39 6.5 NNW 9 17 5 9 1016.9 1017.0 0.0
04/02:30pm 16.8 13.4 3.8 42 6.1 W 11 17 6 9 1016.8 1016.8 0.0
04/02:00pm 16.3 12.6 4.7 46 5.5 W 13 20 7 11 1016.8 1016.8 0.0
04/01:30pm 16.3 11.9 5.0 47 5.4 W 17 22 9 12 1016.9 1017.0 0.0
04/01:00pm 16.6 12.9 6.1 50 5.1 WNW 15 22 8 12 1016.9 1017.0 0.0
04/12:30pm 15.9 12.4 7.1 56 4.4 W 15 24 8 13 1017.2 1017.3 0.0
04/12:00pm 15.6 11.4 5.8 52 4.7 WNW 17 20 9 11 1017.5 1017.6 0.0
04/11:30am 15.4 12.3 7.2 58 4.1 NW 13 19 7 10 1017.7 1017.8 0.0
04/11:00am 14.9 11.9 7.5 61 3.7 W 13 19 7 10 1017.7 1017.8 0.0
04/10:30am 14.2 11.5 7.3 63 3.4 WNW 11 19 6 10 1017.5 1017.6 0.0
04/10:00am 14.2 12.5 7.7 65 3.2 NW 6 9 3 5 1017.3 1017.4 0.0
04/09:30am 12.7 10.5 8.0 73 2.3 WNW 9 11 5 6 1017.3 1017.4 0.0
04/09:00am 12.5 10.3 7.8 73 2.3 WNW 9 15 5 8 1017.1 1017.2 2.4
04/08:30am 12.3 9.5 8.6 78 1.9 W 13 17 7 9 1016.8 1016.8 2.4
04/08:00am 11.8 9.8 8.8 82 1.5 WNW 9 15 5 8 1016.6 1016.6 2.4
04/07:30am 11.2 8.9 8.9 86 1.2 WNW 11 15 6 8 1016.1 1016.1 2.4
04/07:08am 11.1 9.1 8.7 85 1.2 WNW 9 13 5 7 1015.5 1015.6 2.4
04/07:00am 11.1 8.7 8.7 85 1.2 W 11 19 6 10 1015.5 1015.6 2.4
04/06:56am 11.2 8.1 8.8 85 1.2 W 15 20 8 11 1015.4 1015.5 2.4
04/06:30am 11.1 8.0 9.0 87 1.1 WNW 15 22 8 12 1015.0 1015.1 2.4
04/06:00am 11.2 8.2 9.1 87 1.1 WNW 15 20 8 11 1014.3 1014.4 2.4
04/05:30am 11.4 8.5 9.7 89 0.9 W 15 20 8 11 1013.9 1014.0 2.4
04/05:13am 11.5 8.5 9.2 86 1.2 W 15 20 8 11 1013.6 1013.7 2.4
04/05:00am 11.6 8.3 9.7 88 1.0 W 17 22 9 12 1013.3 1013.4 2.4
04/04:30am 11.4 8.9 9.8 90 0.8 W 13 19 7 10 1012.7 1012.8 2.4
04/04:25am 11.4 8.6 10.0 91 0.7 W 15 19 8 10 1012.7 1012.8 2.4
04/04:00am 11.1 8.1 9.4 89 0.9 WNW 15 19 8 10 1012.2 1012.3 2.4
04/03:30am 11.5 8.2 9.4 87 1.1 WNW 17 20 9 11 1012.2 1012.3 2.4
04/03:00am 12.0 8.4 9.9 87 1.1 W 19 28 10 15 1011.9 1012.0 2.4
04/02:30am 12.8 9.7 10.2 84 1.4 W 17 24 9 13 1011.6 1011.6 2.4
04/02:00am 12.6 10.4 10.8 89 0.9 WNW 13 22 7 12 1011.4 1011.4 2.4
04/01:55am 12.7 9.8 11.1 90 0.8 W 17 24 9 13 1011.3 1011.3 2.4
04/01:50am 12.8 9.6 11.4 91 0.7 W 19 30 10 16 1011.5 1011.5 2.4
04/01:30am 13.3 9.9 12.5 95 0.4 W 22 33 12 18 1011.3 1011.3 2.2
04/01:00am 13.6 11.2 12.8 95 0.4 W 17 20 9 11 1010.8 1010.8 1.4
04/12:57am 13.6 11.2 12.7 94 0.5 W 17 22 9 12 1010.7 1010.7 1.2
04/12:30am 13.8 12.7 13.0 95 0.4 W 11 15 6 8 1010.3 1010.3 1.2
04/12:26am 13.7 12.5 12.9 95 0.4 W 11 15 6 8 1010.3 1010.3 1.0
04/12:00am 13.7 13.4 12.6 93 0.6 SSW 6 7 3 4 1010.2 1010.2 1.0
 
Date/Time
EST
Temp
°C
App
Temp
°C
Dew
Point
Rel
Hum
%
Delta-T
°C
Wind Press
QNH
hPa
Press
MSL
hPa
Rain
since 9 am
mm
Dir
 
Spd
km/h
Gust
km/h
Spd
kts
Gust
kts
03/11:30pm 13.8 13.3 12.2 90 0.9 W 6 7 3 4 1010.2 1010.2 1.0
03/11:00pm 14.1 12.5 12.7 91 0.8 NW 13 17 7 9 1010.1 1010.1 1.0
03/10:30pm 14.1 12.9 12.7 91 0.8 NW 11 17 6 9 1010.0 1010.0 1.0
03/10:20pm 14.1 12.9 12.7 91 0.8 WNW 11 15 6 8 1010.1 1010.1 1.0
03/10:00pm 14.2 11.8 12.8 91 0.8 WNW 17 26 9 14 1010.3 1010.3 0.6
03/09:56pm 14.3 11.5 12.7 90 0.9 WNW 19 26 10 14 1010.4 1010.4 0.6
03/09:30pm 14.4 12.0 12.6 89 1.0 W 17 24 9 13 1010.2 1010.2 0.4
03/09:00pm 14.8 12.0 12.7 87 1.2 W 19 28 10 15 1010.0 1010.0 0.0
03/08:30pm 15.9 11.5 11.7 76 2.3 W 26 37 14 20 1009.8 1009.8 0.0
03/08:00pm 17.3 12.7 9.5 60 4.1 W 24 35 13 19 1008.9 1009.0 0.0
03/07:30pm 19.1 14.8 6.9 45 6.2 WNW 19 33 10 18 1007.9 1008.0 0.0
03/07:00pm 19.5 15.0 6.3 42 6.7 WNW 19 26 10 14 1007.8 1007.9 0.0
03/06:30pm 20.0 15.6 4.9 37 7.4 WNW 17 24 9 13 1007.3 1007.4 0.0
03/06:00pm 20.4 15.4 4.4 35 7.8 NW 20 32 11 17 1006.7 1006.8 0.0
03/05:30pm 20.2 15.8 4.7 36 7.6 NNW 17 24 9 13 1006.3 1006.3 0.0
03/05:00pm 20.6 14.8 4.2 34 8.0 NNW 24 33 13 18 1006.1 1006.1 0.0
03/04:30pm 21.1 13.7 4.2 33 8.2 NW 32 46 17 25 1005.9 1005.9 0.0
03/04:00pm 21.2 14.2 3.9 32 8.4 NNW 30 46 16 25 1005.7 1005.7 0.0
03/03:49pm 21.4 14.8 4.0 32 8.5 NNW 28 52 15 28 1005.8 1005.8 0.0
03/03:30pm 21.7 15.5 4.3 32 8.5 NW 26 39 14 21 1005.8 1005.8 0.0

Other Formats:

Comma delimited format used in spreadsheet applications
http://www.bom.gov.au/fwo/IDV60801/IDV60801.95896.axf

JavaScript Object Notation format (JSON) in row-major order
http://www.bom.gov.au/fwo/IDV60801/IDV60801.95896.json